Terminal Aerodrome Forecast
Issued by NWS

Home | Current Version | Previous Version | Text Only | Print | Product List | Glossary On
Versions: 1 2 3 4 5 6 7 8 9 10 11 12 13
000
FTUS44 KSJT 031700
TAFJCT
TAF
KJCT 031720Z 0318/0418 17010KT P6SM BKN035
     FM032000 17010G16KT P6SM SCT050 OVC250
     FM040100 13010G17KT P6SM OVC050
     FM040400 14012KT P6SM OVC015=

USA.gov is the U.S. government's official web portal to all federal, state and local government web resources and services.